sensor_id;sensor_type;location;lat;lon;timestamp;pressure;altitude;pressure_sealevel;temperature;humidity
43071;BME280;36278;47.952;21.714;2023-02-12T00:01:10;101599.03;;;-0.22;93.11
43071;BME280;36278;47.952;21.714;2023-02-12T00:03:36;101620.56;;;-0.05;91.63
43071;BME280;36278;47.952;21.714;2023-02-12T00:06:02;101617.78;;;0.11;90.87
43071;BME280;36278;47.952;21.714;2023-02-12T00:08:28;101610.88;;;0.07;90.44
43071;BME280;36278;47.952;21.714;2023-02-12T00:10:53;101606.47;;;0.12;91.22
43071;BME280;36278;47.952;21.714;2023-02-12T00:13:19;101596.16;;;0.03;90.33
43071;BME280;36278;47.952;21.714;2023-02-12T00:15:44;101607.41;;;0.06;90.26
43071;BME280;36278;47.952;21.714;2023-02-12T00:18:11;101609.16;;;0.06;90.76
43071;BME280;36278;47.952;21.714;2023-02-12T00:20:37;101609.19;;;0.03;89.77
43071;BME280;36278;47.952;21.714;2023-02-12T00:23:03;101617.97;;;-0.06;91.04
43071;BME280;36278;47.952;21.714;2023-02-12T00:25:29;101608.53;;;-0.16;91.58
43071;BME280;36278;47.952;21.714;2023-02-12T00:27:54;101613.75;;;-0.18;91.46
43071;BME280;36278;47.952;21.714;2023-02-12T00:30:20;101606.78;;;-0.14;91.25
43071;BME280;36278;47.952;21.714;2023-02-12T00:32:45;101615.50;;;-0.20;91.48
43071;BME280;36278;47.952;21.714;2023-02-12T00:35:11;101615.63;;;-0.34;92.13
43071;BME280;36278;47.952;21.714;2023-02-12T00:37:37;101628.59;;;-0.26;91.95
43071;BME280;36278;47.952;21.714;2023-02-12T00:40:03;101622.38;;;-0.13;91.87
43071;BME280;36278;47.952;21.714;2023-02-12T00:42:29;101624.06;;;-0.07;90.78
43071;BME280;36278;47.952;21.714;2023-02-12T00:44:54;101619.78;;;-0.13;90.20
43071;BME280;36278;47.952;21.714;2023-02-12T00:47:20;101636.25;;;-0.11;90.47
43071;BME280;36278;47.952;21.714;2023-02-12T00:49:45;101637.94;;;-0.05;90.95
43071;BME280;36278;47.952;21.714;2023-02-12T00:52:11;101640.63;;;-0.13;90.96
43071;BME280;36278;47.952;21.714;2023-02-12T00:54:36;101642.34;;;-0.12;91.64
43071;BME280;36278;47.952;21.714;2023-02-12T00:57:02;101643.16;;;-0.07;90.46
43071;BME280;36278;47.952;21.714;2023-02-12T00:59:27;101634.47;;;-0.07;90.31
43071;BME280;36278;47.952;21.714;2023-02-12T01:01:54;101652.78;;;-0.13;89.62
43071;BME280;36278;47.952;21.714;2023-02-12T01:04:21;101645.00;;;-0.18;89.70
43071;BME280;36278;47.952;21.714;2023-02-12T01:06:46;101648.28;;;-0.01;89.22
43071;BME280;36278;47.952;21.714;2023-02-12T01:09:12;101651.69;;;0.06;89.42
43071;BME280;36278;47.952;21.714;2023-02-12T01:11:38;101630.00;;;0.04;90.03
43071;BME280;36278;47.952;21.714;2023-02-12T01:14:04;101648.91;;;0.21;89.08
43071;BME280;36278;47.952;21.714;2023-02-12T01:16:31;101648.97;;;0.15;88.59
43071;BME280;36278;47.952;21.714;2023-02-12T01:18:58;101648.06;;;0.21;88.68
43071;BME280;36278;47.952;21.714;2023-02-12T01:21:26;101658.53;;;0.16;88.96
43071;BME280;36278;47.952;21.714;2023-02-12T01:23:53;101644.66;;;0.13;89.14
43071;BME280;36278;47.952;21.714;2023-02-12T01:26:20;101641.19;;;0.14;88.92
43071;BME280;36278;47.952;21.714;2023-02-12T01:28:51;101650.66;;;0.21;87.99
43071;BME280;36278;47.952;21.714;2023-02-12T01:31:19;101649.06;;;0.09;88.28
43071;BME280;36278;47.952;21.714;2023-02-12T01:33:50;101647.34;;;0.08;88.93
43071;BME280;36278;47.952;21.714;2023-02-12T01:36:16;101656.03;;;0.09;89.01
43071;BME280;36278;47.952;21.714;2023-02-12T01:38:41;101643.97;;;-0.03;89.23
43071;BME280;36278;47.952;21.714;2023-02-12T01:41:09;101655.25;;;-0.03;89.74
43071;BME280;36278;47.952;21.714;2023-02-12T01:43:36;101643.06;;;0.03;89.13
43071;BME280;36278;47.952;21.714;2023-02-12T01:46:02;101648.28;;;0.01;89.23
43071;BME280;36278;47.952;21.714;2023-02-12T01:48:35;101645.66;;;0.03;88.89
43071;BME280;36278;47.952;21.714;2023-02-12T01:51:02;101652.53;;;0.10;89.07
43071;BME280;36278;47.952;21.714;2023-02-12T01:53:32;101666.34;;;0.18;89.44
43071;BME280;36278;47.952;21.714;2023-02-12T01:56:01;101655.00;;;0.20;88.08
43071;BME280;36278;47.952;21.714;2023-02-12T01:58:30;101649.03;;;0.12;89.25
43071;BME280;36278;47.952;21.714;2023-02-12T02:01:00;101648.13;;;0.16;88.56
43071;BME280;36278;47.952;21.714;2023-02-12T02:03:26;101645.59;;;0.07;88.43
43071;BME280;36278;47.952;21.714;2023-02-12T02:05:59;101650.78;;;0.10;88.05
43071;BME280;36278;47.952;21.714;2023-02-12T02:08:25;101661.38;;;-0.05;88.56
43071;BME280;36278;47.952;21.714;2023-02-12T02:10:51;101672.66;;;-0.06;89.34
43071;BME280;36278;47.952;21.714;2023-02-12T02:13:17;101675.31;;;-0.08;89.38
43071;BME280;36278;47.952;21.714;2023-02-12T02:16:27;101665.66;;;-0.01;89.69
43071;BME280;36278;47.952;21.714;2023-02-12T02:18:55;101672.47;;;0.12;88.59
43071;BME280;36278;47.952;21.714;2023-02-12T02:21:45;101670.69;;;0.14;88.15
43071;BME280;36278;47.952;21.714;2023-02-12T02:27:23;101680.13;;;0.27;87.76
43071;BME280;36278;47.952;21.714;2023-02-12T02:35:33;101672.28;;;0.29;87.86
43071;BME280;36278;47.952;21.714;2023-02-12T02:38:16;101676.50;;;0.39;85.63
43071;BME280;36278;47.952;21.714;2023-02-12T02:41:03;101680.03;;;0.35;86.50
43071;BME280;36278;47.952;21.714;2023-02-12T02:43:39;101673.16;;;0.28;86.56
43071;BME280;36278;47.952;21.714;2023-02-12T02:46:10;101693.19;;;0.26;87.45
43071;BME280;36278;47.952;21.714;2023-02-12T02:48:43;101688.81;;;0.28;87.36
43071;BME280;36278;47.952;21.714;2023-02-12T02:51:17;101668.78;;;0.30;86.11
43071;BME280;36278;47.952;21.714;2023-02-12T02:53:48;101674.84;;;0.32;86.17
43071;BME280;36278;47.952;21.714;2023-02-12T02:56:18;101668.81;;;0.28;86.43
43071;BME280;36278;47.952;21.714;2023-02-12T02:59:11;101695.94;;;0.08;87.46
43071;BME280;36278;47.952;21.714;2023-02-12T03:01:50;101703.06;;;-0.05;88.51
43071;BME280;36278;47.952;21.714;2023-02-12T03:04:43;101699.59;;;-0.07;89.51
43071;BME280;36278;47.952;21.714;2023-02-12T03:09:49;101706.41;;;0.06;89.24
43071;BME280;36278;47.952;21.714;2023-02-12T03:15:17;101698.47;;;0.18;87.77
43071;BME280;36278;47.952;21.714;2023-02-12T03:17:45;101687.16;;;0.19;88.15
43071;BME280;36278;47.952;21.714;2023-02-12T03:20:23;101697.59;;;0.19;87.93
43071;BME280;36278;47.952;21.714;2023-02-12T03:22:54;101718.59;;;0.03;88.23
43071;BME280;36278;47.952;21.714;2023-02-12T03:25:41;101723.91;;;-0.07;89.00
43071;BME280;36278;47.952;21.714;2023-02-12T03:28:32;101722.13;;;-0.03;89.75
43071;BME280;36278;47.952;21.714;2023-02-12T03:42:12;101746.28;;;0.13;88.39
43071;BME280;36278;47.952;21.714;2023-02-12T03:44:52;101744.59;;;0.07;89.06
43071;BME280;36278;47.952;21.714;2023-02-12T03:52:32;101749.78;;;0.12;89.32
43071;BME280;36278;47.952;21.714;2023-02-12T03:54:58;101765.41;;;0.12;89.70
43071;BME280;36278;47.952;21.714;2023-02-12T03:57:30;101772.34;;;0.13;90.05
43071;BME280;36278;47.952;21.714;2023-02-12T04:00:03;101757.53;;;0.18;89.93
43071;BME280;36278;47.952;21.714;2023-02-12T04:02:29;101747.03;;;0.25;89.15
43071;BME280;36278;47.952;21.714;2023-02-12T04:04:55;101747.81;;;0.35;88.60
43071;BME280;36278;47.952;21.714;2023-02-12T04:07:21;101760.84;;;0.34;88.73
43071;BME280;36278;47.952;21.714;2023-02-12T04:09:46;101749.78;;;0.12;89.48
43071;BME280;36278;47.952;21.714;2023-02-12T04:17:55;101770.66;;;0.06;90.41
43071;BME280;36278;47.952;21.714;2023-02-12T04:23:14;101789.75;;;0.06;90.54
43071;BME280;36278;47.952;21.714;2023-02-12T04:28:45;101795.91;;;-0.03;91.32
43071;BME280;36278;47.952;21.714;2023-02-12T04:31:22;101788.16;;;-0.07;92.09
43071;BME280;36278;47.952;21.714;2023-02-12T04:34:00;101791.66;;;-0.08;92.47
43071;BME280;36278;47.952;21.714;2023-02-12T04:36:34;101799.50;;;-0.14;92.58
43071;BME280;36278;47.952;21.714;2023-02-12T04:39:09;101799.56;;;-0.23;93.63
43071;BME280;36278;47.952;21.714;2023-02-12T04:41:39;101811.72;;;-0.22;93.98
43071;BME280;36278;47.952;21.714;2023-02-12T04:44:22;101817.81;;;-0.23;94.35
43071;BME280;36278;47.952;21.714;2023-02-12T04:46:49;101801.31;;;-0.24;93.98
43071;BME280;36278;47.952;21.714;2023-02-12T04:49:16;101805.53;;;-0.08;94.06
43071;BME280;36278;47.952;21.714;2023-02-12T04:51:43;101813.34;;;-0.11;93.98
43071;BME280;36278;47.952;21.714;2023-02-12T04:54:09;101823.75;;;-0.08;93.65
43071;BME280;36278;47.952;21.714;2023-02-12T04:56:34;101835.97;;;-0.14;94.34
43071;BME280;36278;47.952;21.714;2023-02-12T04:59:00;101847.22;;;-0.11;93.96
43071;BME280;36278;47.952;21.714;2023-02-12T05:01:25;101829.81;;;-0.06;94.33
43071;BME280;36278;47.952;21.714;2023-02-12T05:03:51;101848.91;;;-0.05;94.15
43071;BME280;36278;47.952;21.714;2023-02-12T05:06:17;101856.69;;;-0.01;93.47
43071;BME280;36278;47.952;21.714;2023-02-12T05:08:42;101862.75;;;0.02;94.58
43071;BME280;36278;47.952;21.714;2023-02-12T05:11:09;101846.31;;;-0.05;94.17
43071;BME280;36278;47.952;21.714;2023-02-12T05:13:36;101859.28;;;0.03;94.62
43071;BME280;36278;47.952;21.714;2023-02-12T05:16:06;101857.56;;;-0.02;94.43
43071;BME280;36278;47.952;21.714;2023-02-12T05:18:32;101871.44;;;-0.01;95.36
43071;BME280;36278;47.952;21.714;2023-02-12T05:20:59;101878.41;;;0.00;95.04
43071;BME280;36278;47.952;21.714;2023-02-12T05:23:27;101875.78;;;0.03;94.93
43071;BME280;36278;47.952;21.714;2023-02-12T05:25:53;101867.13;;;0.01;95.04
43071;BME280;36278;47.952;21.714;2023-02-12T05:28:18;101878.31;;;0.08;95.07
43071;BME280;36278;47.952;21.714;2023-02-12T05:30:44;101884.41;;;0.10;94.88
43071;BME280;36278;47.952;21.714;2023-02-12T05:33:09;101882.75;;;-0.02;95.39
43071;BME280;36278;47.952;21.714;2023-02-12T05:35:35;101887.88;;;0.07;95.90
43071;BME280;36278;47.952;21.714;2023-02-12T05:38:00;101891.34;;;0.11;95.11
43071;BME280;36278;47.952;21.714;2023-02-12T05:40:26;101886.16;;;0.08;94.99
43071;BME280;36278;47.952;21.714;2023-02-12T05:42:51;101891.34;;;0.08;95.48
43071;BME280;36278;47.952;21.714;2023-02-12T05:45:17;101896.59;;;0.06;95.45
43071;BME280;36278;47.952;21.714;2023-02-12T05:47:42;101896.63;;;0.03;95.47
43071;BME280;36278;47.952;21.714;2023-02-12T05:50:08;101910.53;;;0.01;95.99
43071;BME280;36278;47.952;21.714;2023-02-12T05:52:33;101909.59;;;0.08;96.02
43071;BME280;36278;47.952;21.714;2023-02-12T05:54:59;101919.16;;;0.09;95.85
43071;BME280;36278;47.952;21.714;2023-02-12T05:57:24;101924.38;;;0.07;95.83
43071;BME280;36278;47.952;21.714;2023-02-12T05:59:50;101939.09;;;0.14;95.28
43071;BME280;36278;47.952;21.714;2023-02-12T06:02:15;101946.06;;;0.08;96.34
43071;BME280;36278;47.952;21.714;2023-02-12T06:04:41;101946.97;;;0.04;96.36
43071;BME280;36278;47.952;21.714;2023-02-12T06:07:06;101948.75;;;0.00;96.81
43071;BME280;36278;47.952;21.714;2023-02-12T06:09:33;101948.66;;;0.08;96.54
43071;BME280;36278;47.952;21.714;2023-02-12T06:11:59;101947.78;;;0.16;96.29
43071;BME280;36278;47.952;21.714;2023-02-12T06:14:24;101944.34;;;0.10;95.97
43071;BME280;36278;47.952;21.714;2023-02-12T06:16:50;101949.56;;;0.08;96.05
43071;BME280;36278;47.952;21.714;2023-02-12T06:19:16;101951.25;;;0.14;96.31
43071;BME280;36278;47.952;21.714;2023-02-12T06:21:42;101971.25;;;0.10;96.62
43071;BME280;36278;47.952;21.714;2023-02-12T06:24:10;101956.53;;;0.03;96.93
43071;BME280;36278;47.952;21.714;2023-02-12T06:26:36;101956.41;;;0.21;97.26
43071;BME280;36278;47.952;21.714;2023-02-12T06:29:01;101959.94;;;0.14;96.23
43071;BME280;36278;47.952;21.714;2023-02-12T06:31:29;101972.94;;;0.16;96.39
43071;BME280;36278;47.952;21.714;2023-02-12T06:33:56;101964.22;;;0.23;96.33
43071;BME280;36278;47.952;21.714;2023-02-12T06:36:22;101972.97;;;0.17;96.15
43071;BME280;36278;47.952;21.714;2023-02-12T06:38:48;101979.88;;;0.20;95.55
43071;BME280;36278;47.952;21.714;2023-02-12T06:41:14;101991.13;;;0.28;96.89
43071;BME280;36278;47.952;21.714;2023-02-12T06:43:40;101989.41;;;0.27;96.11
43071;BME280;36278;47.952;21.714;2023-02-12T06:46:05;101987.66;;;0.26;96.13
43071;BME280;36278;47.952;21.714;2023-02-12T06:48:32;101978.97;;;0.27;96.89
43071;BME280;36278;47.952;21.714;2023-02-12T06:51:13;101985.88;;;0.34;96.18
43071;BME280;36278;47.952;21.714;2023-02-12T06:53:39;101972.84;;;0.30;96.03
43071;BME280;36278;47.952;21.714;2023-02-12T06:56:06;101999.75;;;0.38;95.71
43071;BME280;36278;47.952;21.714;2023-02-12T06:58:38;102019.75;;;0.34;95.81
43071;BME280;36278;47.952;21.714;2023-02-12T07:01:18;102029.28;;;0.38;96.01
43071;BME280;36278;47.952;21.714;2023-02-12T07:03:48;102019.69;;;0.43;95.74
43071;BME280;36278;47.952;21.714;2023-02-12T07:06:14;102013.53;;;0.55;95.63
43071;BME280;36278;47.952;21.714;2023-02-12T07:08:39;102028.16;;;0.73;94.28
43071;BME280;36278;47.952;21.714;2023-02-12T07:11:05;102042.06;;;0.75;94.51
43071;BME280;36278;47.952;21.714;2023-02-12T07:13:32;102041.22;;;0.74;94.13
43071;BME280;36278;47.952;21.714;2023-02-12T07:16:03;102027.22;;;0.84;94.16
43071;BME280;36278;47.952;21.714;2023-02-12T07:18:29;102049.78;;;0.89;94.02
43071;BME280;36278;47.952;21.714;2023-02-12T07:20:55;102043.63;;;0.99;93.09
43071;BME280;36278;47.952;21.714;2023-02-12T07:23:21;102027.00;;;1.09;92.02
43071;BME280;36278;47.952;21.714;2023-02-12T07:25:56;102050.41;;;1.18;90.85
43071;BME280;36278;47.952;21.714;2023-02-12T07:28:22;102046.03;;;1.20;90.60
43071;BME280;36278;47.952;21.714;2023-02-12T07:30:48;102062.56;;;1.22;90.00
43071;BME280;36278;47.952;21.714;2023-02-12T07:33:13;102052.97;;;1.24;90.15
43071;BME280;36278;47.952;21.714;2023-02-12T07:35:39;102060.78;;;1.24;90.72
43071;BME280;36278;47.952;21.714;2023-02-12T07:38:04;102052.09;;;1.25;90.26
43071;BME280;36278;47.952;21.714;2023-02-12T07:40:30;102057.34;;;1.22;91.03
43071;BME280;36278;47.952;21.714;2023-02-12T07:42:55;102047.69;;;1.29;90.54
43071;BME280;36278;47.952;21.714;2023-02-12T07:45:21;102073.75;;;1.33;89.59
43071;BME280;36278;47.952;21.714;2023-02-12T07:47:47;102064.09;;;1.42;89.99
43071;BME280;36278;47.952;21.714;2023-02-12T07:50:12;102066.59;;;1.55;88.70
43071;BME280;36278;47.952;21.714;2023-02-12T07:52:38;102061.25;;;1.64;88.67
43071;BME280;36278;47.952;21.714;2023-02-12T07:55:03;102069.78;;;1.80;88.00
43071;BME280;36278;47.952;21.714;2023-02-12T07:57:29;102060.13;;;1.87;87.69
43071;BME280;36278;47.952;21.714;2023-02-12T07:59:54;102057.44;;;1.93;85.49
43071;BME280;36278;47.952;21.714;2023-02-12T08:02:20;102069.50;;;2.03;85.83
43071;BME280;36278;47.952;21.714;2023-02-12T08:04:45;102070.16;;;2.22;85.07
43071;BME280;36278;47.952;21.714;2023-02-12T08:07:11;102067.34;;;2.36;84.47
43071;BME280;36278;47.952;21.714;2023-02-12T08:09:36;102049.91;;;2.35;83.91
43071;BME280;36278;47.952;21.714;2023-02-12T08:12:02;102056.88;;;2.37;82.84
43071;BME280;36278;47.952;21.714;2023-02-12T08:14:27;102061.47;;;2.20;83.41
43071;BME280;36278;47.952;21.714;2023-02-12T08:16:53;102074.53;;;2.21;83.66
43071;BME280;36278;47.952;21.714;2023-02-12T08:19:19;102072.78;;;2.22;83.93
43071;BME280;36278;47.952;21.714;2023-02-12T08:21:45;102078.78;;;2.27;83.35
43071;BME280;36278;47.952;21.714;2023-02-12T08:24:13;102083.19;;;2.23;83.85
43071;BME280;36278;47.952;21.714;2023-02-12T08:26:39;102081.28;;;2.35;83.79
43071;BME280;36278;47.952;21.714;2023-02-12T08:29:07;102083.75;;;2.47;83.14
43071;BME280;36278;47.952;21.714;2023-02-12T08:31:36;102087.88;;;2.63;82.90
43071;BME280;36278;47.952;21.714;2023-02-12T08:34:01;102083.66;;;2.55;82.17
43071;BME280;36278;47.952;21.714;2023-02-12T08:36:38;102089.56;;;2.69;81.80
43071;BME280;36278;47.952;21.714;2023-02-12T08:39:06;102091.31;;;2.67;81.92
43071;BME280;36278;47.952;21.714;2023-02-12T08:41:32;102093.69;;;2.85;80.47
43071;BME280;36278;47.952;21.714;2023-02-12T08:44:00;102088.38;;;2.88;80.27
43071;BME280;36278;47.952;21.714;2023-02-12T08:46:34;102104.88;;;2.92;80.93
43071;BME280;36278;47.952;21.714;2023-02-12T08:49:02;102104.91;;;2.93;79.65
43071;BME280;36278;47.952;21.714;2023-02-12T08:51:30;102099.28;;;3.15;79.49
43071;BME280;36278;47.952;21.714;2023-02-12T08:53:59;102104.16;;;3.37;78.71
43071;BME280;36278;47.952;21.714;2023-02-12T08:56:27;102111.00;;;3.46;77.87
43071;BME280;36278;47.952;21.714;2023-02-12T08:58:56;102110.06;;;3.50;77.77
43071;BME280;36278;47.952;21.714;2023-02-12T09:01:23;102108.00;;;3.66;77.58
43071;BME280;36278;47.952;21.714;2023-02-12T09:03:49;102113.56;;;3.96;77.29
43071;BME280;36278;47.952;21.714;2023-02-12T09:06:17;102120.28;;;4.10;75.54
43071;BME280;36278;47.952;21.714;2023-02-12T09:08:42;102118.25;;;4.23;74.58
43071;BME280;36278;47.952;21.714;2023-02-12T09:11:13;102122.66;;;4.21;76.51
43071;BME280;36278;47.952;21.714;2023-02-12T09:13:41;102117.38;;;4.24;75.74
43071;BME280;36278;47.952;21.714;2023-02-12T09:16:08;102125.94;;;4.32;76.06
43071;BME280;36278;47.952;21.714;2023-02-12T09:18:34;102127.75;;;4.29;76.04
43071;BME280;36278;47.952;21.714;2023-02-12T09:21:02;102129.81;;;4.55;75.77
43071;BME280;36278;47.952;21.714;2023-02-12T09:23:28;102136.66;;;4.62;75.31
43071;BME280;36278;47.952;21.714;2023-02-12T09:25:53;102147.66;;;4.81;74.71
43071;BME280;36278;47.952;21.714;2023-02-12T09:28:19;102142.22;;;4.87;73.94
43071;BME280;36278;47.952;21.714;2023-02-12T09:30:44;102136.06;;;4.89;75.16
43071;BME280;36278;47.952;21.714;2023-02-12T09:33:10;102142.44;;;5.16;73.37
43071;BME280;36278;47.952;21.714;2023-02-12T09:35:37;102144.25;;;5.14;73.22
43071;BME280;36278;47.952;21.714;2023-02-12T09:38:04;102144.28;;;5.11;73.66
43071;BME280;36278;47.952;21.714;2023-02-12T09:43:18;102153.91;;;5.12;74.27
43071;BME280;36278;47.952;21.714;2023-02-12T09:45:59;102146.28;;;5.37;73.21
43071;BME280;36278;47.952;21.714;2023-02-12T09:48:44;102153.28;;;5.38;73.63
43071;BME280;36278;47.952;21.714;2023-02-12T09:51:13;102156.50;;;5.49;73.30
43071;BME280;36278;47.952;21.714;2023-02-12T09:53:42;102159.50;;;5.68;73.20
43071;BME280;36278;47.952;21.714;2023-02-12T09:56:15;102162.03;;;5.73;71.86
43071;BME280;36278;47.952;21.714;2023-02-12T09:58:54;102165.78;;;5.98;72.06
43071;BME280;36278;47.952;21.714;2023-02-12T10:01:22;102166.31;;;6.11;70.70
43071;BME280;36278;47.952;21.714;2023-02-12T10:03:50;102172.63;;;6.35;68.50
43071;BME280;36278;47.952;21.714;2023-02-12T10:06:19;102168.06;;;6.10;68.99
43071;BME280;36278;47.952;21.714;2023-02-12T10:17:12;102181.97;;;6.15;68.30
43071;BME280;36278;47.952;21.714;2023-02-12T10:25:25;102182.34;;;6.64;67.28
43071;BME280;36278;47.952;21.714;2023-02-12T10:27:57;102180.88;;;6.54;67.64
43071;BME280;36278;47.952;21.714;2023-02-12T10:30:39;102180.84;;;6.55;68.03
43071;BME280;36278;47.952;21.714;2023-02-12T10:33:13;102171.34;;;6.50;67.52
43071;BME280;36278;47.952;21.714;2023-02-12T10:35:46;102187.72;;;6.59;67.10
43071;BME280;36278;47.952;21.714;2023-02-12T10:38:20;102185.72;;;6.69;67.17
43071;BME280;36278;47.952;21.714;2023-02-12T10:40:46;102179.53;;;6.98;65.46
43071;BME280;36278;47.952;21.714;2023-02-12T10:43:14;102191.97;;;6.94;63.19
43071;BME280;36278;47.952;21.714;2023-02-12T10:45:41;102183.78;;;7.03;63.21
43071;BME280;36278;47.952;21.714;2023-02-12T10:48:22;102199.41;;;7.10;62.77
43071;BME280;36278;47.952;21.714;2023-02-12T10:50:58;102201.19;;;7.08;61.85
43071;BME280;36278;47.952;21.714;2023-02-12T10:53:33;102206.38;;;7.11;62.07
43071;BME280;36278;47.952;21.714;2023-02-12T11:03:51;102207.53;;;7.30;60.52
43071;BME280;36278;47.952;21.714;2023-02-12T11:06:19;102201.06;;;6.83;61.58
43071;BME280;36278;47.952;21.714;2023-02-12T11:08:46;102203.19;;;7.01;62.40
43071;BME280;36278;47.952;21.714;2023-02-12T11:11:44;102203.41;;;7.21;61.07
43071;BME280;36278;47.952;21.714;2023-02-12T11:14:18;102200.09;;;7.43;58.12
43071;BME280;36278;47.952;21.714;2023-02-12T11:16:57;102206.81;;;7.25;57.98
43071;BME280;36278;47.952;21.714;2023-02-12T11:19:29;102203.91;;;7.32;58.12
43071;BME280;36278;47.952;21.714;2023-02-12T11:22:12;102198.44;;;7.65;58.07
43071;BME280;36278;47.952;21.714;2023-02-12T11:24:43;102199.25;;;7.94;57.06
43071;BME280;36278;47.952;21.714;2023-02-12T11:29:42;102210.44;;;7.75;56.45
43071;BME280;36278;47.952;21.714;2023-02-12T11:32:15;102216.84;;;7.42;56.80
43071;BME280;36278;47.952;21.714;2023-02-12T11:34:40;102205.19;;;6.91;56.30
43071;BME280;36278;47.952;21.714;2023-02-12T11:37:15;102209.84;;;6.83;56.09
43071;BME280;36278;47.952;21.714;2023-02-12T11:39:46;102211.09;;;7.01;56.93
43071;BME280;36278;47.952;21.714;2023-02-12T11:42:17;102214.50;;;7.31;56.04
43071;BME280;36278;47.952;21.714;2023-02-12T11:44:49;102223.97;;;7.38;55.72
43071;BME280;36278;47.952;21.714;2023-02-12T11:47:19;102217.09;;;7.61;55.23
43071;BME280;36278;47.952;21.714;2023-02-12T11:52:23;102204.16;;;7.53;54.35
43071;BME280;36278;47.952;21.714;2023-02-12T11:54:53;102216.41;;;7.54;53.90
43071;BME280;36278;47.952;21.714;2023-02-12T11:57:44;102224.75;;;7.68;54.09
43071;BME280;36278;47.952;21.714;2023-02-12T12:00:29;102225.06;;;7.59;53.59
43071;BME280;36278;47.952;21.714;2023-02-12T12:03:10;102231.44;;;7.78;53.41
43071;BME280;36278;47.952;21.714;2023-02-12T12:05:50;102214.22;;;7.40;53.38
43071;BME280;36278;47.952;21.714;2023-02-12T12:08:27;102218.31;;;7.49;53.12
43071;BME280;36278;47.952;21.714;2023-02-12T12:11:21;102217.47;;;7.48;52.23
43071;BME280;36278;47.952;21.714;2023-02-12T12:14:01;102215.16;;;7.66;51.98
43071;BME280;36278;47.952;21.714;2023-02-12T12:16:53;102217.66;;;7.95;51.27
43071;BME280;36278;47.952;21.714;2023-02-12T12:25:15;102215.69;;;8.75;49.04
43071;BME280;36278;47.952;21.714;2023-02-12T12:33:11;102208.75;;;8.49;49.27
43071;BME280;36278;47.952;21.714;2023-02-12T12:41:30;102213.31;;;8.44;50.29
43071;BME280;36278;47.952;21.714;2023-02-12T12:57:14;102225.44;;;8.50;48.30
43071;BME280;36278;47.952;21.714;2023-02-12T13:03:03;102221.31;;;8.42;49.03
43071;BME280;36278;47.952;21.714;2023-02-12T13:08:54;102227.06;;;9.66;45.88
43071;BME280;36278;47.952;21.714;2023-02-12T13:17:18;102235.63;;;9.93;45.66
43071;BME280;36278;47.952;21.714;2023-02-12T13:20:01;102231.69;;;9.39;46.78
43071;BME280;36278;47.952;21.714;2023-02-12T13:22:54;102226.84;;;8.83;48.04
43071;BME280;36278;47.952;21.714;2023-02-12T13:28:13;102209.50;;;8.76;47.59
43071;BME280;36278;47.952;21.714;2023-02-12T13:30:47;102234.75;;;9.07;47.62
43071;BME280;36278;47.952;21.714;2023-02-12T13:33:52;102234.56;;;9.11;47.25
43071;BME280;36278;47.952;21.714;2023-02-12T13:36:19;102237.31;;;9.53;46.21
43071;BME280;36278;47.952;21.714;2023-02-12T13:38:49;102242.38;;;9.36;46.83
43071;BME280;36278;47.952;21.714;2023-02-12T13:41:16;102225.09;;;9.71;45.81
43071;BME280;36278;47.952;21.714;2023-02-12T13:44:04;102236.06;;;9.62;45.67
43071;BME280;36278;47.952;21.714;2023-02-12T13:46:51;102223.31;;;9.92;45.28
43071;BME280;36278;47.952;21.714;2023-02-12T13:49:23;102219.75;;;10.54;44.54
43071;BME280;36278;47.952;21.714;2023-02-12T13:51:58;102222.56;;;10.10;44.78
43071;BME280;36278;47.952;21.714;2023-02-12T13:57:28;102240.56;;;8.93;46.58
43071;BME280;36278;47.952;21.714;2023-02-12T13:59:54;102243.41;;;8.88;46.95
43071;BME280;36278;47.952;21.714;2023-02-12T14:05:20;102237.00;;;9.61;45.82
43071;BME280;36278;47.952;21.714;2023-02-12T14:07:55;102236.44;;;9.31;46.33
43071;BME280;36278;47.952;21.714;2023-02-12T14:10:36;102232.25;;;8.30;47.72
43071;BME280;36278;47.952;21.714;2023-02-12T14:15:40;102234.66;;;7.34;49.21
43071;BME280;36278;47.952;21.714;2023-02-12T14:20:46;102237.53;;;7.26;50.69
43071;BME280;36278;47.952;21.714;2023-02-12T14:23:26;102230.91;;;7.41;50.23
43071;BME280;36278;47.952;21.714;2023-02-12T14:25:58;102235.97;;;7.75;49.88
43071;BME280;36278;47.952;21.714;2023-02-12T14:28:40;102252.13;;;7.64;50.00
43071;BME280;36278;47.952;21.714;2023-02-12T14:34:35;102252.72;;;7.74;49.04
43071;BME280;36278;47.952;21.714;2023-02-12T14:39:03;102228.34;;;8.67;47.17
43071;BME280;36278;47.952;21.714;2023-02-12T14:41:35;102229.63;;;9.68;45.88
43071;BME280;36278;47.952;21.714;2023-02-12T14:49:46;102244.84;;;10.05;43.94
43071;BME280;36278;47.952;21.714;2023-02-12T14:55:32;102230.88;;;11.19;41.61
43071;BME280;36278;47.952;21.714;2023-02-12T14:58:02;102257.16;;;11.78;41.09
43071;BME280;36278;47.952;21.714;2023-02-12T15:00:36;102257.59;;;12.05;39.79
43071;BME280;36278;47.952;21.714;2023-02-12T15:06:02;102261.41;;;11.28;40.78
43071;BME280;36278;47.952;21.714;2023-02-12T15:08:34;102266.34;;;10.79;41.50
43071;BME280;36278;47.952;21.714;2023-02-12T15:11:24;102269.19;;;10.74;41.97
43071;BME280;36278;47.952;21.714;2023-02-12T15:14:14;102264.44;;;10.21;42.82
43071;BME280;36278;47.952;21.714;2023-02-12T15:16:57;102274.00;;;8.94;45.31
43071;BME280;36278;47.952;21.714;2023-02-12T15:22:34;102282.41;;;6.95;49.19
43071;BME280;36278;47.952;21.714;2023-02-12T15:27:43;102295.84;;;5.48;52.90
43071;BME280;36278;47.952;21.714;2023-02-12T15:30:22;102304.50;;;5.14;54.48
43071;BME280;36278;47.952;21.714;2023-02-12T15:32:48;102306.50;;;5.01;54.98
43071;BME280;36278;47.952;21.714;2023-02-12T15:35:31;102324.72;;;4.66;56.28